Time;durP1;ratioP1;P1;durP2;ratioP2;P2;SDS_P1;SDS_P2;PMS_P1;PMS_P2;Temp;Humidity;BMP_temperature;BMP_pressure;BME280_temperature;BME280_humidity;BME280_pressure;Samples;Min_cycle;Max_cycle;Signal;HPM_P1;HPM_P2
2022/06/12 00:00:54;;;;;;;51.60;9.43;;;;;;;;;;4960758;28;20074;-59
2022/06/12 00:03:20;;;;;;;;;;;;;;;;;;4954097;28;20082;-59
2022/06/12 00:05:55;;;;;;;57.53;9.52;;;;;;;;;;4955421;28;19996;-59
2022/06/12 00:08:21;;;;;;;60.55;10.02;;;;;;;;;;4955011;28;20494;-59
2022/06/12 00:10:49;;;;;;;50.67;9.57;;;;;;;;;;4954207;28;20074;-60
2022/06/12 00:13:25;;;;;;;53.42;9.88;;;;;;;;;;4956249;28;20054;-60
2022/06/12 00:15:52;;;;;;;58.85;9.18;;;;;;;;;;4955757;28;20086;-60
2022/06/12 00:18:19;;;;;;;69.47;10.90;;;;;;;;;;4954660;28;20130;-61
2022/06/12 00:21:10;;;;;;;51.22;10.25;;;;;;;;;;4960396;28;20337;-45
2022/06/12 00:23:47;;;;;;;50.80;10.07;;;;;;;;;;4954681;28;20055;-45
2022/06/12 00:26:23;;;;;;;46.58;8.93;;;;;;;;;;4955041;28;20480;-48
2022/06/12 00:29:01;;;;;;;71.07;10.73;;;;;;;;;;4953101;28;20149;-47
2022/06/12 00:31:35;;;;;;;57.95;11.30;;;;;;;;;;4957696;28;20062;-48
2022/06/12 00:34:02;;;;;;;60.17;10.20;;;;;;;;;;4959246;28;20059;-46
2022/06/12 00:36:29;;;;;;;57.83;10.75;;;;;;;;;;4954318;28;20502;-57
2022/06/12 00:39:03;;;;;;;70.05;10.95;;;;;;;;;;4956432;28;20055;-47
2022/06/12 00:41:29;;;;;;;67.75;12.13;;;;;;;;;;4938662;28;20361;-45
2022/06/12 00:43:55;;;;;;;63.45;10.43;;;;;;;;;;4954128;28;20288;-45
2022/06/12 00:46:38;;;;;;;55.38;10.38;;;;;;;;;;4954428;28;20059;-45
2022/06/12 00:49:20;;;;;;;65.50;11.23;;;;;;;;;;4970801;28;20515;-45
2022/06/12 00:51:56;;;;;;;75.00;11.60;;;;;;;;;;4975452;28;20054;-46
2022/06/12 00:54:24;;;;;;;65.20;12.35;;;;;;;;;;4974081;28;20073;-59
2022/06/12 00:56:53;;;;;;;60.97;10.52;;;;;;;;;;4969447;28;20100;-60
2022/06/12 00:59:35;;;;;;;71.97;11.70;;;;;;;;;;4976862;28;20482;-47
2022/06/12 01:02:04;;;;;;;61.75;11.38;;;;;;;;;;4977144;28;20050;-49
2022/06/12 01:07:24;;;;;;;67.53;12.82;;;;;;;;;;4979040;28;20038;-48
2022/06/12 01:10:01;;;;;;;71.25;12.23;;;;;;;;;;4978894;28;20113;-51
2022/06/12 01:12:30;;;;;;;83.03;14.07;;;;;;;;;;4976376;28;20300;-47
2022/06/12 01:15:06;;;;;;;77.68;12.52;;;;;;;;;;4978922;28;20240;-47
2022/06/12 01:17:40;;;;;;;55.60;11.50;;;;;;;;;;4976563;28;20596;-63
2022/06/12 01:20:09;;;;;;;85.22;13.82;;;;;;;;;;4978180;28;20129;-63
2022/06/12 01:22:41;;;;;;;68.28;14.25;;;;;;;;;;4978712;28;20093;-63
2022/06/12 01:25:39;;;;;;;76.53;13.55;;;;;;;;;;4977669;28;20474;-63
2022/06/12 01:28:24;;;;;;;75.22;14.10;;;;;;;;;;4981513;28;20125;-63
2022/06/12 01:31:06;;;;;;;77.57;14.32;;;;;;;;;;4965819;28;20501;-63
2022/06/12 01:33:42;;;;;;;80.35;14.00;;;;;;;;;;4977353;28;20861;-59
2022/06/12 01:36:20;;;;;;;74.53;13.27;;;;;;;;;;4979507;28;20559;-59
2022/06/12 01:38:56;;;;;;;77.10;14.13;;;;;;;;;;4978455;28;20074;-61
2022/06/12 01:41:48;;;;;;;75.60;13.52;;;;;;;;;;4976181;28;20062;-60
2022/06/12 01:44:22;;;;;;;79.13;13.85;;;;;;;;;;4977720;28;20085;-60
2022/06/12 01:46:55;;;;;;;75.88;14.43;;;;;;;;;;4981060;28;20081;-60
2022/06/12 01:49:47;;;;;;;55.67;12.27;;;;;;;;;;4976298;28;20103;-60
2022/06/12 01:52:43;;;;;;;60.75;11.65;;;;;;;;;;4979045;28;20086;-60
2022/06/12 01:55:13;;;;;;;83.70;13.90;;;;;;;;;;4975950;28;20321;-49
2022/06/12 01:57:54;;;;;;;67.70;14.93;;;;;;;;;;4976017;28;20050;-48
2022/06/12 02:00:21;;;;;;;83.10;14.00;;;;;;;;;;4978192;28;20142;-51
2022/06/12 02:02:54;;;;;;;73.93;13.63;;;;;;;;;;4980398;28;20058;-47
2022/06/12 02:05:22;;;;;;;72.82;14.80;;;;;;;;;;4976376;28;20635;-47
2022/06/12 02:07:57;;;;;;;62.17;13.98;;;;;;;;;;4981261;28;20132;-48
2022/06/12 02:10:35;;;;;;;69.50;14.80;;;;;;;;;;4978644;28;20058;-60
2022/06/12 02:13:13;;;;;;;78.88;14.02;;;;;;;;;;4977876;28;20058;-60
2022/06/12 02:15:48;;;;;;;79.72;14.73;;;;;;;;;;4978140;28;20081;-45
2022/06/12 02:18:29;;;;;;;79.88;15.57;;;;;;;;;;4977338;28;20102;-43
2022/06/12 02:21:24;;;;;;;94.72;16.02;;;;;;;;;;4978502;28;20092;-43
2022/06/12 02:23:52;;;;;;;67.30;12.38;;;;;;;;;;4977212;28;20090;-44
2022/06/12 02:26:41;;;;;;;65.47;13.55;;;;;;;;;;4978769;28;20105;-44
2022/06/12 02:29:11;;;;;;;67.90;13.50;;;;;;;;;;4977046;28;20133;-43
2022/06/12 02:31:46;;;;;;;73.13;14.07;;;;;;;;;;4977399;28;20086;-44
2022/06/12 02:34:15;;;;;;;62.85;13.48;;;;;;;;;;4978443;28;20062;-60
2022/06/12 02:36:45;;;;;;;44.83;9.82;;;;;;;;;;4977880;28;20692;-59
2022/06/12 02:39:22;;;;;;;81.38;12.27;;;;;;;;;;4977466;28;20042;-59
2022/06/12 02:41:50;;;;;;;69.55;12.02;;;;;;;;;;4973336;28;20093;-60
2022/06/12 02:44:23;;;;;;;69.00;11.40;;;;;;;;;;4978415;28;20082;-60
2022/06/12 02:47:00;;;;;;;58.95;12.00;;;;;;;;;;4976202;28;20109;-60
2022/06/12 02:49:39;;;;;;;68.75;12.88;;;;;;;;;;4975334;28;20085;-43
2022/06/12 02:52:28;;;;;;;52.33;10.85;;;;;;;;;;4978286;28;20086;-64
2022/06/12 02:55:01;;;;;;;57.65;9.98;;;;;;;;;;4976358;28;20124;-65
2022/06/12 02:57:37;;;;;;;64.43;12.00;;;;;;;;;;4977953;28;20094;-65
2022/06/12 03:00:07;;;;;;;59.92;11.43;;;;;;;;;;4976851;28;20079;-65
2022/06/12 03:02:39;;;;;;;54.70;10.38;;;;;;;;;;4975982;28;20058;-65
2022/06/12 03:05:26;;;;;;;57.42;11.38;;;;;;;;;;4973859;28;20085;-65
2022/06/12 03:07:55;;;;;;;65.40;11.55;;;;;;;;;;4974294;28;20066;-48
2022/06/12 03:10:32;;;;;;;69.10;11.45;;;;;;;;;;4975934;28;20050;-60
2022/06/12 03:13:00;;;;;;;50.30;9.88;;;;;;;;;;4978770;28;20077;-60
2022/06/12 03:15:29;;;;;;;39.38;9.32;;;;;;;;;;4978627;28;20137;-60
2022/06/12 03:18:04;;;;;;;54.85;10.98;;;;;;;;;;4975566;28;20085;-60
2022/06/12 03:20:38;;;;;;;38.28;8.25;;;;;;;;;;4975429;28;20503;-61
2022/06/12 03:23:22;;;;;;;36.05;8.55;;;;;;;;;;4977795;28;20118;-61
2022/06/12 03:25:53;;;;;;;55.38;10.00;;;;;;;;;;4977559;28;20136;-61
2022/06/12 03:28:56;;;;;;;59.45;11.23;;;;;;;;;;4972117;28;20053;-56
2022/06/12 03:31:27;;;;;;;46.33;9.63;;;;;;;;;;4969373;28;20101;-44
2022/06/12 03:34:01;;;;;;;;;;;;;;;;;;4978019;28;20054;-43
2022/06/12 03:36:33;;;;;;;32.83;7.22;;;;;;;;;;4973444;28;19977;-45
2022/06/12 03:39:05;;;;;;;38.88;7.45;;;;;;;;;;4974651;28;20081;-46
2022/06/12 03:41:47;;;;;;;37.05;7.07;;;;;;;;;;4974974;28;20054;-46
2022/06/12 03:44:19;;;;;;;58.28;9.60;;;;;;;;;;4975953;28;20058;-45
2022/06/12 03:47:03;;;;;;;42.15;8.85;;;;;;;;;;4977998;28;20129;-48
2022/06/12 03:49:35;;;;;;;31.85;6.78;;;;;;;;;;4972505;28;20051;-60
2022/06/12 03:52:21;;;;;;;39.15;9.00;;;;;;;;;;4975197;28;20050;-60
2022/06/12 03:55:09;;;;;;;34.42;7.57;;;;;;;;;;4975026;28;20078;-60
2022/06/12 03:57:53;;;;;;;43.15;8.43;;;;;;;;;;4972975;28;20145;-60
2022/06/12 04:00:26;;;;;;;45.65;8.52;;;;;;;;;;4976083;28;20082;-59
2022/06/12 04:03:03;;;;;;;32.05;7.43;;;;;;;;;;4975616;28;20470;-60
2022/06/12 04:05:35;;;;;;;37.72;7.53;;;;;;;;;;4972660;28;20135;-46
2022/06/12 04:08:10;;;;;;;43.85;8.93;;;;;;;;;;4975756;28;20081;-51
2022/06/12 04:10:39;;;;;;;45.28;7.75;;;;;;;;;;4976258;28;20054;-50
2022/06/12 04:13:08;;;;;;;54.38;8.50;;;;;;;;;;4974346;28;20507;-47
2022/06/12 04:15:59;;;;;;;46.67;8.52;;;;;;;;;;4973761;28;20145;-48
2022/06/12 04:18:26;;;;;;;42.05;8.80;;;;;;;;;;4975582;28;20050;-52
2022/06/12 04:21:02;;;;;;;38.67;7.65;;;;;;;;;;4975871;28;20514;-48
2022/06/12 04:23:47;;;;;;;35.42;8.13;;;;;;;;;;4976070;28;20137;-51
2022/06/12 04:26:23;;;;;;;46.50;7.90;;;;;;;;;;4977931;28;20050;-46
2022/06/12 04:28:57;;;;;;;39.50;8.20;;;;;;;;;;4970604;28;20086;-64
2022/06/12 04:31:33;;;;;;;39.65;7.68;;;;;;;;;;4974160;28;20059;-64
2022/06/12 04:34:17;;;;;;;40.83;8.25;;;;;;;;;;4974262;28;20046;-64
2022/06/12 04:36:53;;;;;;;53.20;8.38;;;;;;;;;;4975178;28;20058;-63
2022/06/12 04:39:22;;;;;;;30.58;7.32;;;;;;;;;;4974493;28;20096;-64
2022/06/12 04:41:49;;;;;;;50.65;8.13;;;;;;;;;;4972766;28;20403;-64
2022/06/12 04:44:22;;;;;;;35.30;7.88;;;;;;;;;;4972096;28;20087;-61
2022/06/12 04:46:50;;;;;;;34.90;7.28;;;;;;;;;;4975814;28;20054;-46
2022/06/12 04:49:18;;;;;;;37.15;8.23;;;;;;;;;;4976728;28;20506;-45
2022/06/12 04:51:52;;;;;;;34.63;7.13;;;;;;;;;;4974412;28;20137;-46
2022/06/12 04:54:19;;;;;;;49.97;8.85;;;;;;;;;;4972251;28;20058;-45
2022/06/12 04:56:46;;;;;;;35.20;7.07;;;;;;;;;;4975972;28;20514;-44
2022/06/12 04:59:19;;;;;;;42.10;8.30;;;;;;;;;;4975474;28;20082;-46
2022/06/12 05:01:46;;;;;;;39.10;7.70;;;;;;;;;;4972813;28;20110;-61
2022/06/12 05:04:12;;;;;;;36.77;7.63;;;;;;;;;;4978038;28;20053;-63
2022/06/12 05:06:49;;;;;;;44.17;7.93;;;;;;;;;;4972925;28;20090;-47
2022/06/12 05:09:16;;;;;;;38.67;7.50;;;;;;;;;;4975475;28;20050;-48
2022/06/12 05:11:43;;;;;;;36.80;7.18;;;;;;;;;;4975683;28;20086;-49
2022/06/12 05:14:16;;;;;;;38.88;7.53;;;;;;;;;;4974806;28;20090;-47
2022/06/12 05:16:43;;;;;;;30.83;6.78;;;;;;;;;;4974316;28;20090;-47
2022/06/12 05:19:14;;;;;;;45.30;7.57;;;;;;;;;;4975736;28;20085;-47
2022/06/12 05:21:47;;;;;;;35.17;7.40;;;;;;;;;;4974338;28;20086;-48
2022/06/12 05:24:14;;;;;;;41.35;8.05;;;;;;;;;;4972699;28;20046;-59
2022/06/12 05:26:42;;;;;;;39.58;7.90;;;;;;;;;;4976325;28;20105;-60
2022/06/12 05:29:21;;;;;;;39.13;7.90;;;;;;;;;;4975622;28;20169;-61
2022/06/12 05:31:48;;;;;;;41.42;7.78;;;;;;;;;;4972173;28;20330;-60
2022/06/12 05:34:15;;;;;;;32.07;8.10;;;;;;;;;;4974101;28;20054;-60
2022/06/12 05:36:48;;;;;;;39.60;7.72;;;;;;;;;;4975388;28;20054;-59
2022/06/12 05:39:15;;;;;;;34.10;7.72;;;;;;;;;;4974390;28;20494;-60
2022/06/12 05:41:41;;;;;;;37.67;8.00;;;;;;;;;;4973695;28;20154;-60
2022/06/12 05:44:15;;;;;;;38.67;6.95;;;;;;;;;;4979277;28;20082;-48
2022/06/12 05:46:43;;;;;;;34.30;6.47;;;;;;;;;;4977676;28;20585;-47
2022/06/12 05:49:09;;;;;;;43.60;7.22;;;;;;;;;;4978386;28;20554;-49
2022/06/12 05:51:49;;;;;;;28.95;6.60;;;;;;;;;;4977568;28;20077;-47
2022/06/12 05:54:16;;;;;;;41.60;7.97;;;;;;;;;;4974718;28;20108;-50
2022/06/12 05:56:50;;;;;;;39.58;7.57;;;;;;;;;;4979021;28;20090;-51
2022/06/12 05:59:17;;;;;;;40.85;7.63;;;;;;;;;;4974861;28;20046;-51
2022/06/12 06:01:43;;;;;;;37.92;7.15;;;;;;;;;;4978883;28;20130;-59
2022/06/12 06:04:16;;;;;;;33.28;6.70;;;;;;;;;;4979387;28;20046;-59
2022/06/12 06:06:47;;;;;;;31.10;7.30;;;;;;;;;;4976647;28;20110;-59
2022/06/12 06:09:14;;;;;;;32.92;6.68;;;;;;;;;;4975672;28;20046;-59
2022/06/12 06:11:48;;;;;;;45.13;6.75;;;;;;;;;;4975770;28;20125;-59
2022/06/12 06:14:21;;;;;;;31.15;6.00;;;;;;;;;;4981781;28;20081;-59
2022/06/12 06:17:10;;;;;;;40.78;7.45;;;;;;;;;;4977872;28;20054;-60
2022/06/12 06:19:36;;;;;;;35.63;6.50;;;;;;;;;;4973371;28;20046;-47
2022/06/12 06:22:09;;;;;;;32.08;6.00;;;;;;;;;;4977958;28;20062;-67
2022/06/12 06:24:36;;;;;;;29.23;6.30;;;;;;;;;;4979473;28;20487;-66
2022/06/12 06:27:02;;;;;;;25.90;6.05;;;;;;;;;;4976751;28;20082;-66
2022/06/12 06:29:37;;;;;;;25.77;5.40;;;;;;;;;;4973438;28;20062;-67
2022/06/12 06:32:05;;;;;;;24.60;6.15;;;;;;;;;;4978515;28;20089;-66
2022/06/12 06:34:31;;;;;;;35.10;5.70;;;;;;;;;;4978296;28;20085;-67
2022/06/12 06:37:05;;;;;;;24.73;5.53;;;;;;;;;;4976949;28;20086;-59
2022/06/12 06:39:31;;;;;;;23.10;5.18;;;;;;;;;;4977140;28;20079;-65
2022/06/12 06:41:58;;;;;;;35.37;6.97;;;;;;;;;;4978935;28;20607;-65
2022/06/12 06:47:16;;;;;;;33.58;6.45;;;;;;;;;;4978444;28;20165;-65
2022/06/12 06:49:55;;;;;;;26.50;5.95;;;;;;;;;;4974001;28;20141;-66
2022/06/12 06:52:22;;;;;;;28.90;5.50;;;;;;;;;;4974697;28;20109;-65
2022/06/12 06:54:48;;;;;;;29.67;6.18;;;;;;;;;;4976190;28;20097;-66
2022/06/12 06:57:21;;;;;;;36.50;6.35;;;;;;;;;;4977381;28;20080;-59
2022/06/12 06:59:47;;;;;;;32.75;6.65;;;;;;;;;;4980449;28;20573;-50
2022/06/12 07:02:14;;;;;;;29.95;5.47;;;;;;;;;;4979554;28;20069;-66
2022/06/12 07:04:47;;;;;;;27.90;5.65;;;;;;;;;;4974652;28;20730;-66
2022/06/12 07:07:13;;;;;;;27.00;6.15;;;;;;;;;;4979106;28;20090;-66
2022/06/12 07:09:40;;;;;;;30.60;6.35;;;;;;;;;;4979922;28;20089;-65
2022/06/12 07:12:13;;;;;;;26.13;5.32;;;;;;;;;;4977467;28;20185;-66
2022/06/12 07:14:40;;;;;;;30.65;6.22;;;;;;;;;;4978069;28;20050;-64
2022/06/12 07:17:07;;;;;;;31.52;5.90;;;;;;;;;;4979188;28;20050;-65
2022/06/12 07:19:40;;;;;;;24.80;4.97;;;;;;;;;;4975637;28;20148;-65
2022/06/12 07:22:07;;;;;;;24.38;5.07;;;;;;;;;;4975891;28;20541;-66
2022/06/12 07:24:33;;;;;;;31.92;6.22;;;;;;;;;;4973508;28;20580;-67
2022/06/12 07:27:07;;;;;;;28.23;5.80;;;;;;;;;;4980401;28;20092;-67
2022/06/12 07:29:33;;;;;;;27.85;5.57;;;;;;;;;;4975204;28;20075;-67
2022/06/12 07:32:00;;;;;;;23.33;5.43;;;;;;;;;;4977358;28;20598;-67
2022/06/12 07:34:33;;;;;;;33.20;6.05;;;;;;;;;;4976140;28;20867;-66
2022/06/12 07:37:00;;;;;;;18.90;5.18;;;;;;;;;;4976607;28;20116;-54
2022/06/12 07:39:30;;;;;;;35.20;6.47;;;;;;;;;;4976475;28;20105;-66
2022/06/12 07:42:03;;;;;;;28.23;5.88;;;;;;;;;;4976927;28;20108;-66
2022/06/12 07:44:31;;;;;;;23.33;4.90;;;;;;;;;;4976381;28;20051;-66
2022/06/12 07:46:58;;;;;;;28.88;5.32;;;;;;;;;;4976436;28;20094;-67
2022/06/12 07:49:38;;;;;;;23.83;5.28;;;;;;;;;;4973755;28;20063;-67
2022/06/12 07:52:07;;;;;;;24.83;5.28;;;;;;;;;;4975242;28;20086;-66
2022/06/12 07:54:43;;;;;;;20.25;4.95;;;;;;;;;;4970252;28;20055;-58
2022/06/12 07:57:10;;;;;;;23.35;5.43;;;;;;;;;;4979543;28;20561;-45
2022/06/12 07:59:36;;;;;;;21.95;5.30;;;;;;;;;;4973740;28;20081;-50
2022/06/12 08:02:09;;;;;;;25.80;5.38;;;;;;;;;;4975032;28;20047;-49
2022/06/12 08:04:36;;;;;;;20.57;5.20;;;;;;;;;;4970668;28;20062;-47
2022/06/12 08:07:02;;;;;;;22.75;4.55;;;;;;;;;;4975254;28;20137;-46
2022/06/12 08:09:35;;;;;;;27.33;5.35;;;;;;;;;;4978469;28;20151;-47
2022/06/12 08:12:02;;;;;;;29.30;5.38;;;;;;;;;;4976925;28;20084;-45
2022/06/12 08:14:28;;;;;;;20.50;4.80;;;;;;;;;;4978114;28;20132;-62
2022/06/12 08:17:01;;;;;;;23.67;5.43;;;;;;;;;;4974476;28;20082;-60
2022/06/12 08:22:20;;;;;;;14.85;4.15;;;;;;;;;;4975893;28;20138;-59
2022/06/12 08:24:47;;;;;;;22.92;5.10;;;;;;;;;;4976817;28;20054;-63
2022/06/12 08:27:14;;;;;;;20.55;4.95;;;;;;;;;;4974473;28;20086;-63
2022/06/12 08:29:48;;;;;;;25.55;4.93;;;;;;;;;;4975652;28;20066;-63
2022/06/12 08:32:17;;;;;;;19.67;4.55;;;;;;;;;;4972109;28;20569;-51
2022/06/12 08:34:46;;;;;;;20.58;4.13;;;;;;;;;;4961020;28;20058;-51
2022/06/12 08:37:23;;;;;;;21.90;5.13;;;;;;;;;;4979556;28;20078;-51
2022/06/12 08:39:50;;;;;;;20.52;5.03;;;;;;;;;;4975867;28;20515;-51
2022/06/12 08:42:36;;;;;;;22.63;5.35;;;;;;;;;;4976997;28;20065;-49
2022/06/12 08:45:17;;;;;;;17.00;4.53;;;;;;;;;;4976124;28;20050;-48
2022/06/12 08:47:50;;;;;;;16.65;4.65;;;;;;;;;;4976656;28;20113;-50
2022/06/12 08:51:02;;;;;;;15.80;4.65;;;;;;;;;;4949821;28;20082;-57
2022/06/12 08:53:38;;;;;;;27.55;4.82;;;;;;;;;;4929837;28;20061;-54
2022/06/12 08:56:24;;;;;;;17.75;4.82;;;;;;;;;;4957451;28;20348;-63
2022/06/12 08:59:03;;;;;;;25.83;4.57;;;;;;;;;;4950158;28;20102;-63
2022/06/12 09:01:41;;;;;;;21.48;4.82;;;;;;;;;;4955125;28;20059;-63
2022/06/12 09:04:09;;;;;;;16.25;4.38;;;;;;;;;;4953378;28;20546;-63
2022/06/12 09:06:46;;;;;;;17.70;4.28;;;;;;;;;;4957501;28;20086;-63
2022/06/12 09:09:24;;;;;;;24.90;5.45;;;;;;;;;;4956374;28;20126;-63
2022/06/12 09:12:03;;;;;;;18.25;4.95;;;;;;;;;;4958806;28;20070;-66
2022/06/12 09:14:30;;;;;;;18.92;4.70;;;;;;;;;;4959622;28;20098;-58
2022/06/12 09:17:23;;;;;;;23.73;4.60;;;;;;;;;;4961754;28;20082;-58
2022/06/12 09:19:59;;;;;;;17.73;4.05;;;;;;;;;;4959151;28;20121;-57
2022/06/12 09:22:35;;;;;;;16.45;4.18;;;;;;;;;;4964556;28;20144;-57
2022/06/12 09:25:20;;;;;;;17.40;4.20;;;;;;;;;;4957193;28;20078;-55
2022/06/12 09:27:55;;;;;;;18.70;5.05;;;;;;;;;;4958446;28;20054;-58
2022/06/12 09:30:36;;;;;;;21.67;4.63;;;;;;;;;;4960240;28;20570;-58
2022/06/12 09:33:10;;;;;;;20.48;4.75;;;;;;;;;;4957694;28;20119;-50
2022/06/12 09:35:52;;;;;;;21.85;4.90;;;;;;;;;;4955802;28;20088;-54
2022/06/12 09:38:22;;;;;;;19.58;4.72;;;;;;;;;;4958930;28;20265;-53
2022/06/12 09:41:05;;;;;;;19.58;4.85;;;;;;;;;;4958770;28;20106;-56
2022/06/12 09:43:34;;;;;;;20.75;4.88;;;;;;;;;;4960031;28;20079;-49
2022/06/12 09:46:14;;;;;;;25.58;4.57;;;;;;;;;;4960685;28;20105;-48
2022/06/12 09:48:53;;;;;;;18.15;4.30;;;;;;;;;;4957884;28;20077;-49
2022/06/12 09:51:36;;;;;;;16.88;4.65;;;;;;;;;;4956594;28;20744;-51
2022/06/12 09:54:23;;;;;;;20.80;4.63;;;;;;;;;;4959369;28;20086;-51
2022/06/12 09:57:08;;;;;;;18.55;4.55;;;;;;;;;;4959576;28;20110;-49
2022/06/12 09:59:39;;;;;;;18.38;4.50;;;;;;;;;;4958722;28;20054;-50
2022/06/12 10:02:25;;;;;;;15.30;3.93;;;;;;;;;;4957734;28;20090;-51
2022/06/12 10:04:56;;;;;;;19.10;4.70;;;;;;;;;;4955536;28;20305;-46
2022/06/12 10:07:40;;;;;;;21.77;5.13;;;;;;;;;;4958824;28;20051;-46
2022/06/12 10:10:11;;;;;;;31.63;8.30;;;;;;;;;;4956007;28;20086;-47
2022/06/12 10:12:47;;;;;;;16.15;4.57;;;;;;;;;;4958845;28;20082;-62
2022/06/12 10:15:17;;;;;;;23.65;4.57;;;;;;;;;;4956879;28;20055;-62
2022/06/12 10:17:47;;;;;;;20.23;4.50;;;;;;;;;;4958560;28;20055;-61
2022/06/12 10:20:25;;;;;;;17.77;4.93;;;;;;;;;;4954923;28;20047;-61
2022/06/12 10:22:53;;;;;;;22.13;5.35;;;;;;;;;;4958223;28;20066;-62
2022/06/12 10:25:21;;;;;;;14.32;4.68;;;;;;;;;;4956952;28;20082;-62
2022/06/12 10:27:59;;;;;;;17.40;4.45;;;;;;;;;;4958420;28;20483;-58
2022/06/12 10:30:34;;;;;;;22.35;5.18;;;;;;;;;;4958869;28;20051;-58
2022/06/12 10:33:18;;;;;;;18.10;4.85;;;;;;;;;;4955547;28;20051;-58
2022/06/12 10:35:55;;;;;;;19.17;4.63;;;;;;;;;;4940688;28;21418;-58
2022/06/12 10:38:33;;;;;;;16.23;4.57;;;;;;;;;;4959021;28;20100;-58
2022/06/12 10:41:01;;;;;;;18.25;4.20;;;;;;;;;;4958338;28;20404;-58
2022/06/12 10:43:32;;;;;;;19.40;4.38;;;;;;;;;;4961390;28;20133;-58
2022/06/12 10:46:15;;;;;;;18.42;4.38;;;;;;;;;;4956677;28;20053;-48
2022/06/12 10:49:00;;;;;;;14.77;4.30;;;;;;;;;;4961320;28;20141;-48
2022/06/12 10:51:41;;;;;;;16.33;3.95;;;;;;;;;;4977573;28;20058;-49
2022/06/12 10:54:15;;;;;;;15.82;4.15;;;;;;;;;;4977431;28;20104;-48
2022/06/12 10:56:57;;;;;;;12.85;3.75;;;;;;;;;;4973027;28;20137;-48
2022/06/12 10:59:38;;;;;;;15.30;4.20;;;;;;;;;;4977297;28;20063;-49
2022/06/12 11:02:30;;;;;;;13.90;3.50;;;;;;;;;;4976053;28;20086;-50
2022/06/12 11:05:06;;;;;;;17.67;4.20;;;;;;;;;;4975815;28;20058;-62
2022/06/12 11:08:03;;;;;;;17.55;4.00;;;;;;;;;;4977078;28;20054;-48
2022/06/12 11:10:29;;;;;;;11.68;3.88;;;;;;;;;;4979735;28;20050;-47
2022/06/12 11:13:02;;;;;;;10.30;2.95;;;;;;;;;;4977265;28;20046;-49
2022/06/12 11:15:31;;;;;;;18.55;3.80;;;;;;;;;;4979832;28;20126;-47
2022/06/12 11:18:18;;;;;;;16.77;4.45;;;;;;;;;;4974188;28;20081;-47
2022/06/12 11:20:59;;;;;;;23.88;4.90;;;;;;;;;;4969493;28;20104;-50
2022/06/12 11:23:28;;;;;;;19.95;4.75;;;;;;;;;;4975255;28;20062;-53
2022/06/12 11:26:17;;;;;;;16.33;4.68;;;;;;;;;;4973781;28;20462;-62
2022/06/12 11:29:10;;;;;;;13.70;4.20;;;;;;;;;;4973690;28;20480;-57
2022/06/12 11:32:02;;;;;;;16.33;4.50;;;;;;;;;;4967915;28;20077;-56
2022/06/12 11:34:42;;;;;;;11.32;3.42;;;;;;;;;;4975270;28;20597;-53
2022/06/12 11:37:35;;;;;;;14.68;2.63;;;;;;;;;;4973321;28;20058;-55
2022/06/12 11:40:14;;;;;;;13.82;2.78;;;;;;;;;;4972109;28;20780;-51
2022/06/12 11:43:06;;;;;;;9.52;2.17;;;;;;;;;;4974529;28;20541;-53
2022/06/12 11:46:05;;;;;;;13.85;3.05;;;;;;;;;;4974709;28;20137;-56
2022/06/12 11:49:07;;;;;;;30.57;3.37;;;;;;;;;;4974000;28;20070;-56
2022/06/12 11:51:42;;;;;;;12.38;3.15;;;;;;;;;;4972301;28;20697;-57
2022/06/12 11:54:18;;;;;;;14.90;4.00;;;;;;;;;;4974530;28;20078;-58
2022/06/12 11:56:59;;;;;;;15.35;3.92;;;;;;;;;;4972831;28;20117;-59
2022/06/12 11:59:39;;;;;;;17.48;4.13;;;;;;;;;;4972374;28;20137;-59
2022/06/12 12:02:14;;;;;;;17.65;3.85;;;;;;;;;;4974342;28;20109;-59
2022/06/12 12:04:58;;;;;;;12.23;4.32;;;;;;;;;;4975790;28;20113;-61
2022/06/12 12:07:34;;;;;;;20.23;5.55;;;;;;;;;;4974424;28;20148;-62
2022/06/12 12:10:08;;;;;;;14.43;4.32;;;;;;;;;;4973489;28;20066;-63
2022/06/12 12:12:38;;;;;;;15.25;4.47;;;;;;;;;;4974224;28;20160;-62
2022/06/12 12:15:06;;;;;;;21.38;5.78;;;;;;;;;;4973405;28;20474;-62
2022/06/12 12:17:41;;;;;;;21.17;5.38;;;;;;;;;;4973382;28;20177;-62
2022/06/12 12:20:18;;;;;;;20.30;4.75;;;;;;;;;;4971047;28;20082;-50
2022/06/12 12:22:56;;;;;;;22.85;4.50;;;;;;;;;;4972786;28;20573;-59
2022/06/12 12:25:34;;;;;;;19.27;4.38;;;;;;;;;;4974354;28;20054;-50
2022/06/12 12:28:17;;;;;;;22.27;4.72;;;;;;;;;;4975844;28;20084;-49
2022/06/12 12:30:45;;;;;;;19.38;3.70;;;;;;;;;;4970184;28;20090;-50
2022/06/12 12:33:18;;;;;;;15.98;3.47;;;;;;;;;;4973741;28;20048;-46
2022/06/12 12:41:42;;;;;;;9.80;2.97;;;;;;;;;;4972273;28;20061;-47
2022/06/12 12:44:33;;;;;;;15.55;3.50;;;;;;;;;;4973010;28;20058;-60
2022/06/12 12:47:00;;;;;;;16.90;2.95;;;;;;;;;;4974208;28;20082;-59
2022/06/12 12:49:40;;;;;;;11.98;3.15;;;;;;;;;;4966384;28;20562;-59
2022/06/12 12:52:09;;;;;;;14.32;3.35;;;;;;;;;;4960703;28;20089;-60
2022/06/12 12:54:52;;;;;;;10.60;2.83;;;;;;;;;;4961335;28;20141;-59
2022/06/12 12:57:21;;;;;;;12.82;2.88;;;;;;;;;;4961265;28;20050;-59
2022/06/12 12:59:54;;;;;;;11.50;3.00;;;;;;;;;;4961038;28;20055;-47
2022/06/12 13:02:24;;;;;;;9.23;3.13;;;;;;;;;;4962441;28;20070;-60
2022/06/12 13:04:52;;;;;;;16.35;3.97;;;;;;;;;;4965817;28;20122;-60
2022/06/12 13:07:47;;;;;;;12.85;2.95;;;;;;;;;;4961272;28;20086;-59
2022/06/12 13:10:29;;;;;;;10.95;3.05;;;;;;;;;;4959673;28;20067;-60
2022/06/12 13:13:05;;;;;;;14.27;2.97;;;;;;;;;;4959011;28;20128;-60
2022/06/12 13:15:31;;;;;;;11.57;2.95;;;;;;;;;;4957838;28;20082;-59
2022/06/12 13:18:16;;;;;;;9.57;2.45;;;;;;;;;;4957124;28;20091;-61
2022/06/12 13:20:58;;;;;;;17.02;3.75;;;;;;;;;;4961451;28;20069;-50
2022/06/12 13:23:36;;;;;;;9.98;3.17;;;;;;;;;;4959316;28;20054;-52
2022/06/12 13:26:11;;;;;;;9.30;2.83;;;;;;;;;;4962961;28;20054;-51
2022/06/12 13:28:39;;;;;;;11.35;3.03;;;;;;;;;;4958645;28;20087;-46
2022/06/12 13:31:16;;;;;;;11.95;3.20;;;;;;;;;;4960841;28;20534;-47
2022/06/12 13:33:54;;;;;;;16.70;3.75;;;;;;;;;;4962993;28;20082;-45
2022/06/12 13:36:31;;;;;;;14.20;3.13;;;;;;;;;;4959183;28;20086;-51
2022/06/12 13:39:06;;;;;;;12.02;3.30;;;;;;;;;;4963113;28;20109;-60
2022/06/12 13:41:38;;;;;;;14.63;3.65;;;;;;;;;;4959140;28;20075;-58
2022/06/12 13:44:27;;;;;;;11.55;3.53;;;;;;;;;;4958828;28;20055;-57
2022/06/12 13:46:54;;;;;;;13.50;3.00;;;;;;;;;;4956552;28;20372;-59
2022/06/12 13:49:41;;;;;;;15.45;3.13;;;;;;;;;;4970026;28;20056;-59
2022/06/12 13:52:23;;;;;;;13.35;3.35;;;;;;;;;;4978901;28;20403;-59
2022/06/12 13:54:56;;;;;;;18.45;3.40;;;;;;;;;;4980587;28;20416;-59
2022/06/12 13:57:29;;;;;;;13.40;3.35;;;;;;;;;;4981865;28;20074;-60
2022/06/12 13:59:55;;;;;;;14.45;4.03;;;;;;;;;;4981034;28;20082;-63
2022/06/12 14:02:32;;;;;;;12.93;3.42;;;;;;;;;;4976575;28;20476;-63
2022/06/12 14:05:15;;;;;;;15.57;3.05;;;;;;;;;;4979054;28;20104;-63
2022/06/12 14:07:50;;;;;;;11.82;3.35;;;;;;;;;;4978479;28;20090;-63
2022/06/12 14:10:19;;;;;;;23.27;3.85;;;;;;;;;;4978131;28;20074;-63
2022/06/12 14:12:46;;;;;;;16.17;4.22;;;;;;;;;;4977838;28;20117;-63
2022/06/12 14:15:26;;;;;;;8.18;2.97;;;;;;;;;;4977662;28;20078;-61
2022/06/12 14:17:53;;;;;;;13.70;3.17;;;;;;;;;;4978205;28;20487;-47
2022/06/12 14:20:31;;;;;;;16.15;3.33;;;;;;;;;;4976458;28;20475;-66
2022/06/12 14:22:59;;;;;;;11.27;2.72;;;;;;;;;;4974254;28;20133;-66
2022/06/12 14:25:25;;;;;;;10.65;2.78;;;;;;;;;;4973912;28;20066;-66
2022/06/12 14:28:04;;;;;;;10.10;3.10;;;;;;;;;;4978663;28;20085;-66
2022/06/12 14:30:30;;;;;;;12.65;2.85;;;;;;;;;;4977689;28;20148;-66
2022/06/12 14:33:21;;;;;;;16.30;2.90;;;;;;;;;;4978761;28;20062;-59
2022/06/12 14:35:55;;;;;;;14.68;3.17;;;;;;;;;;4976613;28;20055;-62
2022/06/12 14:38:24;;;;;;;17.20;3.38;;;;;;;;;;4977544;28;20097;-60
2022/06/12 14:40:50;;;;;;;8.48;2.50;;;;;;;;;;4980348;28;20086;-61
2022/06/12 14:43:23;;;;;;;15.30;3.03;;;;;;;;;;4977336;28;20541;-61
2022/06/12 14:45:51;;;;;;;12.85;3.65;;;;;;;;;;4975103;28;20138;-61
2022/06/12 14:48:20;;;;;;;10.30;3.28;;;;;;;;;;4976720;28;20062;-61
2022/06/12 14:51:00;;;;;;;14.23;2.60;;;;;;;;;;4975357;28;20113;-61
2022/06/12 14:53:27;;;;;;;11.30;2.92;;;;;;;;;;4977077;28;20082;-61
2022/06/12 14:56:05;;;;;;;13.85;3.63;;;;;;;;;;4978829;28;20141;-46
2022/06/12 14:58:36;;;;;;;15.45;3.35;;;;;;;;;;4976852;28;20074;-50
2022/06/12 15:01:11;;;;;;;17.05;3.58;;;;;;;;;;4974420;28;20078;-49
2022/06/12 15:03:37;;;;;;;15.07;3.05;;;;;;;;;;4977754;28;20141;-51
2022/06/12 15:06:04;;;;;;;17.80;3.50;;;;;;;;;;4978511;28;20062;-49
2022/06/12 15:08:39;;;;;;;13.88;3.00;;;;;;;;;;4976544;28;20125;-53
2022/06/12 15:11:17;;;;;;;15.10;3.00;;;;;;;;;;4974671;28;20078;-52
2022/06/12 15:13:51;;;;;;;11.75;3.00;;;;;;;;;;4978653;28;20062;-61
2022/06/12 15:16:18;;;;;;;;;;;;;;;;;;4976439;28;20564;-59
2022/06/12 15:18:44;;;;;;;18.85;3.50;;;;;;;;;;4978928;28;20369;-58
2022/06/12 15:21:19;;;;;;;16.50;3.47;;;;;;;;;;4976859;28;20110;-58
2022/06/12 15:23:45;;;;;;;14.93;4.10;;;;;;;;;;4973882;28;20509;-58
2022/06/12 15:31:50;;;;;;;26.55;4.82;;;;;;;;;;4975542;28;20110;-51